sensor_id;sensor_type;location;lat;lon;timestamp;pressure;altitude;pressure_sealevel;temperature;humidity
61805;BME280;47725;47.912;7.356;2022-07-04T00:01:21;99375.04;;;26.19;42.21
61805;BME280;47725;47.912;7.356;2022-07-04T00:05:21;99376.70;;;26.19;42.26
61805;BME280;47725;47.912;7.356;2022-07-04T00:09:21;99380.20;;;26.19;42.31
61805;BME280;47725;47.912;7.356;2022-07-04T00:13:21;99384.45;;;26.19;42.34
61805;BME280;47725;47.912;7.356;2022-07-04T00:17:21;99390.61;;;26.20;42.23
61805;BME280;47725;47.912;7.356;2022-07-04T00:21:21;99397.40;;;26.20;42.27
61805;BME280;47725;47.912;7.356;2022-07-04T00:25:21;99402.40;;;26.21;42.32
61805;BME280;47725;47.912;7.356;2022-07-04T00:29:21;99405.47;;;26.20;42.44
61805;BME280;47725;47.912;7.356;2022-07-04T00:33:21;99409.09;;;26.19;42.49
61805;BME280;47725;47.912;7.356;2022-07-04T00:37:21;99413.31;;;26.18;42.50
61805;BME280;47725;47.912;7.356;2022-07-04T00:41:21;99417.21;;;26.18;42.54
61805;BME280;47725;47.912;7.356;2022-07-04T00:45:21;99420.59;;;26.17;42.54
61805;BME280;47725;47.912;7.356;2022-07-04T00:49:21;99424.67;;;26.17;42.57
61805;BME280;47725;47.912;7.356;2022-07-04T00:53:21;99428.41;;;26.16;42.58
61805;BME280;47725;47.912;7.356;2022-07-04T00:57:21;99431.99;;;26.16;42.61
61805;BME280;47725;47.912;7.356;2022-07-04T01:01:21;99435.41;;;26.16;42.62
61805;BME280;47725;47.912;7.356;2022-07-04T01:05:21;99439.15;;;26.16;42.62
61805;BME280;47725;47.912;7.356;2022-07-04T01:09:21;99442.81;;;26.16;42.65
61805;BME280;47725;47.912;7.356;2022-07-04T01:13:22;99447.23;;;26.16;42.65
61805;BME280;47725;47.912;7.356;2022-07-04T01:17:21;99449.31;;;26.16;42.64
61805;BME280;47725;47.912;7.356;2022-07-04T01:21:21;99452.15;;;26.17;42.65
61805;BME280;47725;47.912;7.356;2022-07-04T01:25:21;99455.98;;;26.17;42.66
61805;BME280;47725;47.912;7.356;2022-07-04T01:29:21;99459.34;;;26.17;42.66
61805;BME280;47725;47.912;7.356;2022-07-04T01:33:21;99463.34;;;26.17;42.68
61805;BME280;47725;47.912;7.356;2022-07-04T01:37:21;99464.01;;;26.17;42.67
61805;BME280;47725;47.912;7.356;2022-07-04T01:41:21;99465.26;;;26.18;42.69
61805;BME280;47725;47.912;7.356;2022-07-04T01:45:21;99469.19;;;26.18;42.71
61805;BME280;47725;47.912;7.356;2022-07-04T01:49:21;99476.05;;;26.19;42.70
61805;BME280;47725;47.912;7.356;2022-07-04T01:53:21;99482.09;;;26.18;42.76
61805;BME280;47725;47.912;7.356;2022-07-04T01:57:21;99489.17;;;26.18;42.83
61805;BME280;47725;47.912;7.356;2022-07-04T02:01:21;99498.58;;;26.18;42.81
61805;BME280;47725;47.912;7.356;2022-07-04T02:05:21;99507.07;;;26.18;42.81
61805;BME280;47725;47.912;7.356;2022-07-04T02:09:21;99513.90;;;26.18;42.85
61805;BME280;47725;47.912;7.356;2022-07-04T02:13:21;99519.23;;;26.18;42.86
61805;BME280;47725;47.912;7.356;2022-07-04T02:17:21;99525.14;;;26.18;42.86
61805;BME280;47725;47.912;7.356;2022-07-04T02:21:21;99531.39;;;26.18;42.88
61805;BME280;47725;47.912;7.356;2022-07-04T02:25:21;99536.02;;;26.19;42.88
61805;BME280;47725;47.912;7.356;2022-07-04T02:29:21;99533.67;;;26.19;42.88
61805;BME280;47725;47.912;7.356;2022-07-04T02:33:21;99532.43;;;26.19;42.88
61805;BME280;47725;47.912;7.356;2022-07-04T02:37:21;99531.59;;;26.19;42.93
61805;BME280;47725;47.912;7.356;2022-07-04T02:41:21;99530.24;;;26.18;42.94
61805;BME280;47725;47.912;7.356;2022-07-04T02:45:21;99528.47;;;26.18;43.05
61805;BME280;47725;47.912;7.356;2022-07-04T02:49:21;99526.93;;;26.17;43.06
61805;BME280;47725;47.912;7.356;2022-07-04T02:53:21;99525.68;;;26.16;43.09
61805;BME280;47725;47.912;7.356;2022-07-04T02:57:21;99523.17;;;26.16;43.10
61805;BME280;47725;47.912;7.356;2022-07-04T03:01:21;99518.89;;;26.15;43.13
61805;BME280;47725;47.912;7.356;2022-07-04T03:05:21;99514.72;;;26.14;43.13
61805;BME280;47725;47.912;7.356;2022-07-04T03:09:21;99509.72;;;26.14;43.14
61805;BME280;47725;47.912;7.356;2022-07-04T03:13:21;99503.48;;;26.14;43.17
61805;BME280;47725;47.912;7.356;2022-07-04T03:17:21;99498.07;;;26.14;43.16
61805;BME280;47725;47.912;7.356;2022-07-04T03:21:21;99496.48;;;26.14;43.16
61805;BME280;47725;47.912;7.356;2022-07-04T03:25:21;99495.81;;;26.14;43.16
61805;BME280;47725;47.912;7.356;2022-07-04T03:29:21;99495.48;;;26.15;43.22
61805;BME280;47725;47.912;7.356;2022-07-04T03:33:21;99493.82;;;26.15;43.21
61805;BME280;47725;47.912;7.356;2022-07-04T03:37:21;99492.16;;;26.14;43.32
61805;BME280;47725;47.912;7.356;2022-07-04T03:41:21;99490.23;;;26.14;43.29
61805;BME280;47725;47.912;7.356;2022-07-04T03:45:21;99487.32;;;26.14;43.29
61805;BME280;47725;47.912;7.356;2022-07-04T03:49:21;99484.38;;;26.16;43.11
61805;BME280;47725;47.912;7.356;2022-07-04T03:53:21;99482.21;;;26.16;43.26
61805;BME280;47725;47.912;7.356;2022-07-04T03:57:21;99485.33;;;26.17;43.26
61805;BME280;47725;47.912;7.356;2022-07-04T04:01:21;99493.49;;;26.18;43.27
61805;BME280;47725;47.912;7.356;2022-07-04T04:05:21;99502.91;;;26.18;43.25
61805;BME280;47725;47.912;7.356;2022-07-04T04:09:21;99509.53;;;26.19;43.29
61805;BME280;47725;47.912;7.356;2022-07-04T04:13:21;99516.27;;;26.19;43.32
61805;BME280;47725;47.912;7.356;2022-07-04T04:17:21;99526.44;;;26.19;43.33
61805;BME280;47725;47.912;7.356;2022-07-04T04:21:21;99536.42;;;26.19;43.35
61805;BME280;47725;47.912;7.356;2022-07-04T04:25:21;99547.85;;;26.19;43.34
61805;BME280;47725;47.912;7.356;2022-07-04T04:29:21;99562.58;;;26.19;43.40
61805;BME280;47725;47.912;7.356;2022-07-04T04:33:21;99582.99;;;26.20;43.18
61805;BME280;47725;47.912;7.356;2022-07-04T04:37:21;99603.06;;;26.19;43.40
61805;BME280;47725;47.912;7.356;2022-07-04T04:41:21;99617.22;;;26.20;43.35
61805;BME280;47725;47.912;7.356;2022-07-04T04:45:21;99625.96;;;26.19;43.47
61805;BME280;47725;47.912;7.356;2022-07-04T04:49:21;99632.67;;;26.18;43.50
61805;BME280;47725;47.912;7.356;2022-07-04T04:53:21;99637.48;;;26.17;43.55
61805;BME280;47725;47.912;7.356;2022-07-04T04:57:21;99640.27;;;26.17;43.55
61805;BME280;47725;47.912;7.356;2022-07-04T05:01:21;99638.53;;;26.17;43.55
61805;BME280;47725;47.912;7.356;2022-07-04T05:05:21;99634.11;;;26.17;43.52
61805;BME280;47725;47.912;7.356;2022-07-04T05:09:21;99625.12;;;26.17;43.54
61805;BME280;47725;47.912;7.356;2022-07-04T05:13:21;99613.12;;;26.17;43.55
61805;BME280;47725;47.912;7.356;2022-07-04T05:17:21;99598.35;;;26.17;43.54
61805;BME280;47725;47.912;7.356;2022-07-04T05:21:21;99582.93;;;26.17;43.59
61805;BME280;47725;47.912;7.356;2022-07-04T05:25:21;99570.11;;;26.17;43.55
61805;BME280;47725;47.912;7.356;2022-07-04T05:29:21;99558.03;;;26.17;43.57
61805;BME280;47725;47.912;7.356;2022-07-04T05:33:21;99549.97;;;26.18;43.54
61805;BME280;47725;47.912;7.356;2022-07-04T05:37:21;99543.50;;;26.19;43.58
61805;BME280;47725;47.912;7.356;2022-07-04T05:41:21;99540.18;;;26.19;43.56
61805;BME280;47725;47.912;7.356;2022-07-04T05:45:21;99540.59;;;26.19;43.58
61805;BME280;47725;47.912;7.356;2022-07-04T05:49:21;99541.77;;;26.19;43.57
61805;BME280;47725;47.912;7.356;2022-07-04T05:53:21;99543.59;;;26.19;43.65
61805;BME280;47725;47.912;7.356;2022-07-04T05:57:21;99545.00;;;26.19;43.67
61805;BME280;47725;47.912;7.356;2022-07-04T06:01:21;99549.50;;;26.19;43.64
61805;BME280;47725;47.912;7.356;2022-07-04T06:05:21;99554.58;;;26.19;43.67
61805;BME280;47725;47.912;7.356;2022-07-04T06:09:21;99559.16;;;26.19;43.69
61805;BME280;47725;47.912;7.356;2022-07-04T06:13:21;99565.95;;;26.18;43.74
61805;BME280;47725;47.912;7.356;2022-07-04T06:17:21;99572.77;;;26.18;43.79
61805;BME280;47725;47.912;7.356;2022-07-04T06:21:21;99578.19;;;26.17;43.75
61805;BME280;47725;47.912;7.356;2022-07-04T06:25:21;99582.28;;;26.18;43.69
61805;BME280;47725;47.912;7.356;2022-07-04T06:29:21;99583.64;;;26.19;43.63
61805;BME280;47725;47.912;7.356;2022-07-04T06:33:21;99583.49;;;26.20;43.58
61805;BME280;47725;47.912;7.356;2022-07-04T06:37:21;99583.95;;;26.21;43.56
61805;BME280;47725;47.912;7.356;2022-07-04T06:41:21;99586.13;;;26.21;43.65
61805;BME280;47725;47.912;7.356;2022-07-04T06:45:21;99587.87;;;26.21;43.69
61805;BME280;47725;47.912;7.356;2022-07-04T06:49:21;99589.70;;;26.21;43.71
61805;BME280;47725;47.912;7.356;2022-07-04T06:53:21;99591.58;;;26.22;43.60
61805;BME280;47725;47.912;7.356;2022-07-04T06:57:21;99595.33;;;26.23;43.59
61805;BME280;47725;47.912;7.356;2022-07-04T07:01:21;99600.41;;;26.23;43.76
61805;BME280;47725;47.912;7.356;2022-07-04T07:05:21;99603.61;;;26.21;43.68
61805;BME280;47725;47.912;7.356;2022-07-04T07:09:21;99604.66;;;26.23;42.95
61805;BME280;47725;47.912;7.356;2022-07-04T07:13:21;99603.78;;;26.23;42.68
61805;BME280;47725;47.912;7.356;2022-07-04T07:17:21;99602.45;;;26.23;42.42
61805;BME280;47725;47.912;7.356;2022-07-04T07:21:21;99600.50;;;26.23;42.10
61805;BME280;47725;47.912;7.356;2022-07-04T07:25:21;99598.79;;;26.24;41.68
61805;BME280;47725;47.912;7.356;2022-07-04T07:29:21;99595.90;;;26.23;41.62
61805;BME280;47725;47.912;7.356;2022-07-04T07:33:21;99592.08;;;26.22;41.70
61805;BME280;47725;47.912;7.356;2022-07-04T07:37:21;99588.09;;;26.23;41.43
61805;BME280;47725;47.912;7.356;2022-07-04T07:41:21;99583.87;;;26.23;41.34
61805;BME280;47725;47.912;7.356;2022-07-04T07:45:21;99581.72;;;26.24;41.12
61805;BME280;47725;47.912;7.356;2022-07-04T07:49:21;99579.47;;;26.24;41.05
61805;BME280;47725;47.912;7.356;2022-07-04T07:53:21;99576.31;;;26.24;41.04
61805;BME280;47725;47.912;7.356;2022-07-04T07:57:21;99572.44;;;26.25;40.86
61805;BME280;47725;47.912;7.356;2022-07-04T08:01:21;99567.91;;;26.27;40.86
61805;BME280;47725;47.912;7.356;2022-07-04T08:05:21;99562.78;;;26.28;40.90
61805;BME280;47725;47.912;7.356;2022-07-04T08:09:21;99556.34;;;26.30;40.94
61805;BME280;47725;47.912;7.356;2022-07-04T08:13:21;99548.44;;;26.33;40.55
61805;BME280;47725;47.912;7.356;2022-07-04T08:17:21;99540.77;;;26.35;40.77
61805;BME280;47725;47.912;7.356;2022-07-04T08:21:21;99535.16;;;26.37;40.80
61805;BME280;47725;47.912;7.356;2022-07-04T08:25:21;99529.67;;;26.38;40.81
61805;BME280;47725;47.912;7.356;2022-07-04T08:29:21;99525.00;;;26.38;40.99
61805;BME280;47725;47.912;7.356;2022-07-04T08:33:21;99521.75;;;26.37;41.05
61805;BME280;47725;47.912;7.356;2022-07-04T08:37:21;99517.21;;;26.37;41.08
61805;BME280;47725;47.912;7.356;2022-07-04T08:41:21;99512.96;;;26.36;41.09
61805;BME280;47725;47.912;7.356;2022-07-04T08:45:30;99509.84;;;26.37;41.05
61805;BME280;47725;47.912;7.356;2022-07-04T08:49:21;99506.84;;;26.38;41.13
61805;BME280;47725;47.912;7.356;2022-07-04T08:53:21;99505.38;;;26.38;41.15
61805;BME280;47725;47.912;7.356;2022-07-04T08:57:21;99506.14;;;26.40;41.15
61805;BME280;47725;47.912;7.356;2022-07-04T09:01:21;99506.02;;;26.40;41.19
61805;BME280;47725;47.912;7.356;2022-07-04T09:05:21;99507.10;;;26.41;41.26
61805;BME280;47725;47.912;7.356;2022-07-04T09:09:21;99506.85;;;26.41;41.26
61805;BME280;47725;47.912;7.356;2022-07-04T09:13:21;99506.48;;;26.42;41.27
61805;BME280;47725;47.912;7.356;2022-07-04T09:17:21;99507.11;;;26.44;41.25
61805;BME280;47725;47.912;7.356;2022-07-04T09:21:21;99507.73;;;26.45;41.31
61805;BME280;47725;47.912;7.356;2022-07-04T09:25:21;99508.23;;;26.45;41.40
61805;BME280;47725;47.912;7.356;2022-07-04T09:29:21;99509.53;;;26.47;41.58
61805;BME280;47725;47.912;7.356;2022-07-04T09:33:20;99511.91;;;26.51;41.61
61805;BME280;47725;47.912;7.356;2022-07-04T09:37:21;99515.12;;;26.53;41.75
61805;BME280;47725;47.912;7.356;2022-07-04T09:41:20;99515.84;;;26.55;41.66
61805;BME280;47725;47.912;7.356;2022-07-04T09:45:21;99514.84;;;26.58;41.53
61805;BME280;47725;47.912;7.356;2022-07-04T09:49:21;99514.89;;;26.59;41.51
61805;BME280;47725;47.912;7.356;2022-07-04T09:53:25;99514.14;;;26.62;41.41
61805;BME280;47725;47.912;7.356;2022-07-04T09:57:21;99514.06;;;26.65;41.39
61805;BME280;47725;47.912;7.356;2022-07-04T10:01:20;99514.43;;;26.68;41.46
61805;BME280;47725;47.912;7.356;2022-07-04T10:05:29;99513.47;;;26.69;41.57
61805;BME280;47725;47.912;7.356;2022-07-04T10:09:21;99512.78;;;26.72;41.56
61805;BME280;47725;47.912;7.356;2022-07-04T10:13:20;99512.66;;;26.76;41.64
61805;BME280;47725;47.912;7.356;2022-07-04T10:17:21;99513.70;;;26.80;41.86
61805;BME280;47725;47.912;7.356;2022-07-04T10:21:20;99515.16;;;26.85;42.03
61805;BME280;47725;47.912;7.356;2022-07-04T10:25:20;99517.58;;;26.89;41.93
61805;BME280;47725;47.912;7.356;2022-07-04T10:29:20;99518.08;;;26.91;41.97
61805;BME280;47725;47.912;7.356;2022-07-04T10:33:22;99516.33;;;26.94;41.96
61805;BME280;47725;47.912;7.356;2022-07-04T10:37:21;99513.22;;;26.97;41.92
61805;BME280;47725;47.912;7.356;2022-07-04T10:41:21;99510.79;;;26.99;41.94
61805;BME280;47725;47.912;7.356;2022-07-04T10:45:32;99510.75;;;27.01;41.97
61805;BME280;47725;47.912;7.356;2022-07-04T10:49:21;99511.13;;;27.02;42.04
61805;BME280;47725;47.912;7.356;2022-07-04T10:53:20;99512.05;;;27.03;42.08
61805;BME280;47725;47.912;7.356;2022-07-04T10:57:21;99510.91;;;27.03;42.09
61805;BME280;47725;47.912;7.356;2022-07-04T11:01:20;99509.21;;;27.02;42.29
61805;BME280;47725;47.912;7.356;2022-07-04T11:05:30;99507.92;;;27.00;42.35
61805;BME280;47725;47.912;7.356;2022-07-04T11:09:22;99507.87;;;26.99;42.35
61805;BME280;47725;47.912;7.356;2022-07-04T11:13:21;99508.45;;;26.99;42.32
61805;BME280;47725;47.912;7.356;2022-07-04T11:17:26;99506.79;;;26.99;42.23
61805;BME280;47725;47.912;7.356;2022-07-04T11:21:21;99505.55;;;27.00;42.25
61805;BME280;47725;47.912;7.356;2022-07-04T11:25:20;99505.25;;;27.01;42.17
61805;BME280;47725;47.912;7.356;2022-07-04T11:29:20;99505.63;;;27.02;42.37
61805;BME280;47725;47.912;7.356;2022-07-04T11:33:22;99505.92;;;27.01;42.39
61805;BME280;47725;47.912;7.356;2022-07-04T11:37:20;99506.58;;;27.00;42.51
61805;BME280;47725;47.912;7.356;2022-07-04T11:41:27;99507.05;;;27.00;42.46
61805;BME280;47725;47.912;7.356;2022-07-04T11:45:21;99506.05;;;26.99;42.48
61805;BME280;47725;47.912;7.356;2022-07-04T11:49:20;99505.00;;;26.98;42.54
61805;BME280;47725;47.912;7.356;2022-07-04T11:53:20;99505.16;;;26.97;42.57
61805;BME280;47725;47.912;7.356;2022-07-04T11:57:24;99505.13;;;26.97;42.55
61805;BME280;47725;47.912;7.356;2022-07-04T12:01:26;99503.20;;;26.96;42.61
61805;BME280;47725;47.912;7.356;2022-07-04T12:05:20;99501.17;;;26.95;42.64
61805;BME280;47725;47.912;7.356;2022-07-04T12:09:20;99497.79;;;26.93;42.76
61805;BME280;47725;47.912;7.356;2022-07-04T12:13:20;99492.91;;;26.94;42.62
61805;BME280;47725;47.912;7.356;2022-07-04T12:17:20;99485.91;;;26.95;42.69
61805;BME280;47725;47.912;7.356;2022-07-04T12:21:20;99479.02;;;26.96;42.69
61805;BME280;47725;47.912;7.356;2022-07-04T12:25:27;99473.10;;;26.96;42.71
61805;BME280;47725;47.912;7.356;2022-07-04T12:29:23;99470.48;;;26.97;42.68
61805;BME280;47725;47.912;7.356;2022-07-04T12:33:22;99467.10;;;26.99;42.63
61805;BME280;47725;47.912;7.356;2022-07-04T12:37:20;99462.44;;;27.00;42.63
61805;BME280;47725;47.912;7.356;2022-07-04T12:41:28;99457.22;;;27.01;42.68
61805;BME280;47725;47.912;7.356;2022-07-04T12:45:21;99453.25;;;27.02;42.68
61805;BME280;47725;47.912;7.356;2022-07-04T12:49:20;99450.17;;;27.03;42.71
61805;BME280;47725;47.912;7.356;2022-07-04T12:53:20;99447.96;;;27.03;42.72
61805;BME280;47725;47.912;7.356;2022-07-04T12:57:20;99447.41;;;27.05;42.70
61805;BME280;47725;47.912;7.356;2022-07-04T13:01:20;99447.45;;;27.07;42.65
61805;BME280;47725;47.912;7.356;2022-07-04T13:05:20;99448.16;;;27.08;42.70
61805;BME280;47725;47.912;7.356;2022-07-04T13:09:20;99447.87;;;27.09;42.69
61805;BME280;47725;47.912;7.356;2022-07-04T13:13:20;99447.20;;;27.10;42.73
61805;BME280;47725;47.912;7.356;2022-07-04T13:17:20;99443.20;;;27.10;42.73
61805;BME280;47725;47.912;7.356;2022-07-04T13:21:20;99436.69;;;27.10;42.68
61805;BME280;47725;47.912;7.356;2022-07-04T13:25:21;99431.98;;;27.11;42.71
61805;BME280;47725;47.912;7.356;2022-07-04T13:29:21;99429.49;;;27.12;42.76
61805;BME280;47725;47.912;7.356;2022-07-04T13:33:20;99427.01;;;27.13;42.82
61805;BME280;47725;47.912;7.356;2022-07-04T13:37:21;99423.10;;;27.13;43.04
61805;BME280;47725;47.912;7.356;2022-07-04T13:41:20;99419.55;;;27.14;42.82
61805;BME280;47725;47.912;7.356;2022-07-04T13:45:20;99415.96;;;27.15;42.84
61805;BME280;47725;47.912;7.356;2022-07-04T13:49:20;99412.05;;;27.15;42.93
61805;BME280;47725;47.912;7.356;2022-07-04T13:53:20;99408.33;;;27.16;42.91
61805;BME280;47725;47.912;7.356;2022-07-04T13:57:20;99405.16;;;27.16;42.87
61805;BME280;47725;47.912;7.356;2022-07-04T14:01:20;99401.23;;;27.16;42.92
61805;BME280;47725;47.912;7.356;2022-07-04T14:05:20;99397.57;;;27.16;42.93
61805;BME280;47725;47.912;7.356;2022-07-04T14:09:20;99393.91;;;27.17;42.98
61805;BME280;47725;47.912;7.356;2022-07-04T14:13:20;99390.65;;;27.17;43.16
61805;BME280;47725;47.912;7.356;2022-07-04T14:17:20;99389.56;;;27.17;43.09
61805;BME280;47725;47.912;7.356;2022-07-04T14:21:20;99388.51;;;27.17;43.07
61805;BME280;47725;47.912;7.356;2022-07-04T14:25:20;99386.52;;;27.17;43.09
61805;BME280;47725;47.912;7.356;2022-07-04T14:29:20;99386.43;;;27.17;43.19
61805;BME280;47725;47.912;7.356;2022-07-04T14:33:20;99385.23;;;27.17;43.20
61805;BME280;47725;47.912;7.356;2022-07-04T14:37:20;99385.14;;;27.17;43.25
61805;BME280;47725;47.912;7.356;2022-07-04T14:41:21;99384.73;;;27.16;43.28
61805;BME280;47725;47.912;7.356;2022-07-04T14:45:20;99385.14;;;27.16;43.26
61805;BME280;47725;47.912;7.356;2022-07-04T14:49:20;99382.47;;;27.16;43.20
61805;BME280;47725;47.912;7.356;2022-07-04T14:53:20;99379.75;;;27.17;43.05
61805;BME280;47725;47.912;7.356;2022-07-04T14:57:20;99378.46;;;27.19;42.85
61805;BME280;47725;47.912;7.356;2022-07-04T15:01:20;99376.54;;;27.19;42.68
61805;BME280;47725;47.912;7.356;2022-07-04T15:05:20;99376.29;;;27.19;42.52
61805;BME280;47725;47.912;7.356;2022-07-04T15:09:20;99377.59;;;27.17;42.27
61805;BME280;47725;47.912;7.356;2022-07-04T15:13:20;99379.69;;;27.15;42.18
61805;BME280;47725;47.912;7.356;2022-07-04T15:17:20;99382.08;;;27.11;42.05
61805;BME280;47725;47.912;7.356;2022-07-04T15:21:20;99384.16;;;27.08;41.81
61805;BME280;47725;47.912;7.356;2022-07-04T15:25:20;99385.38;;;27.05;41.50
61805;BME280;47725;47.912;7.356;2022-07-04T15:29:21;99386.22;;;27.02;41.32
61805;BME280;47725;47.912;7.356;2022-07-04T15:33:20;99386.55;;;26.99;41.10
61805;BME280;47725;47.912;7.356;2022-07-04T15:37:20;99386.27;;;26.95;41.01
61805;BME280;47725;47.912;7.356;2022-07-04T15:41:20;99386.22;;;26.92;40.95
61805;BME280;47725;47.912;7.356;2022-07-04T15:45:20;99385.07;;;26.90;40.76
61805;BME280;47725;47.912;7.356;2022-07-04T15:49:20;99383.86;;;26.88;40.63
61805;BME280;47725;47.912;7.356;2022-07-04T15:53:20;99382.12;;;26.86;40.48
61805;BME280;47725;47.912;7.356;2022-07-04T15:57:20;99379.99;;;26.81;40.62
61805;BME280;47725;47.912;7.356;2022-07-04T16:01:20;99379.38;;;26.77;40.48
61805;BME280;47725;47.912;7.356;2022-07-04T16:05:20;99380.21;;;26.73;40.32
61805;BME280;47725;47.912;7.356;2022-07-04T16:09:20;99380.80;;;26.70;40.23
61805;BME280;47725;47.912;7.356;2022-07-04T16:13:20;99381.25;;;26.68;40.11
61805;BME280;47725;47.912;7.356;2022-07-04T16:17:20;99379.64;;;26.65;40.05
61805;BME280;47725;47.912;7.356;2022-07-04T16:21:20;99378.68;;;26.63;39.87
61805;BME280;47725;47.912;7.356;2022-07-04T16:25:20;99377.22;;;26.62;39.79
61805;BME280;47725;47.912;7.356;2022-07-04T16:29:20;99375.59;;;26.60;39.69
61805;BME280;47725;47.912;7.356;2022-07-04T16:33:20;99375.14;;;26.59;39.57
61805;BME280;47725;47.912;7.356;2022-07-04T16:37:20;99373.52;;;26.57;39.56
61805;BME280;47725;47.912;7.356;2022-07-04T16:41:20;99373.72;;;26.56;39.42
61805;BME280;47725;47.912;7.356;2022-07-04T16:45:20;99372.60;;;26.55;39.43
61805;BME280;47725;47.912;7.356;2022-07-04T16:49:20;99370.06;;;26.54;39.24
61805;BME280;47725;47.912;7.356;2022-07-04T16:53:20;99367.56;;;26.53;39.36
61805;BME280;47725;47.912;7.356;2022-07-04T16:57:20;99365.97;;;26.52;39.38
61805;BME280;47725;47.912;7.356;2022-07-04T17:01:20;99364.94;;;26.52;39.18
61805;BME280;47725;47.912;7.356;2022-07-04T17:05:20;99365.10;;;26.51;39.23
61805;BME280;47725;47.912;7.356;2022-07-04T17:09:20;99365.14;;;26.50;39.20
61805;BME280;47725;47.912;7.356;2022-07-04T17:13:20;99366.55;;;26.49;39.17
61805;BME280;47725;47.912;7.356;2022-07-04T17:17:20;99368.77;;;26.48;39.13
61805;BME280;47725;47.912;7.356;2022-07-04T17:21:20;99371.56;;;26.47;39.12
61805;BME280;47725;47.912;7.356;2022-07-04T17:25:20;99375.02;;;26.46;39.07
61805;BME280;47725;47.912;7.356;2022-07-04T17:29:20;99378.34;;;26.45;39.13
61805;BME280;47725;47.912;7.356;2022-07-04T17:33:20;99381.48;;;26.44;38.93
61805;BME280;47725;47.912;7.356;2022-07-04T17:37:20;99385.72;;;26.44;39.02
61805;BME280;47725;47.912;7.356;2022-07-04T17:41:20;99389.43;;;26.43;39.01
61805;BME280;47725;47.912;7.356;2022-07-04T17:45:20;99391.60;;;26.42;39.01
61805;BME280;47725;47.912;7.356;2022-07-04T17:49:20;99392.72;;;26.41;38.96
61805;BME280;47725;47.912;7.356;2022-07-04T17:53:20;99394.39;;;26.41;39.07
61805;BME280;47725;47.912;7.356;2022-07-04T17:57:20;99395.59;;;26.42;39.06
61805;BME280;47725;47.912;7.356;2022-07-04T18:01:20;99395.18;;;26.43;38.68
61805;BME280;47725;47.912;7.356;2022-07-04T18:05:20;99395.92;;;26.42;38.72
61805;BME280;47725;47.912;7.356;2022-07-04T18:09:20;99396.80;;;26.41;38.73
61805;BME280;47725;47.912;7.356;2022-07-04T18:13:20;99396.96;;;26.40;38.68
61805;BME280;47725;47.912;7.356;2022-07-04T18:17:20;99396.84;;;26.39;38.62
61805;BME280;47725;47.912;7.356;2022-07-04T18:21:20;99398.46;;;26.37;38.54
61805;BME280;47725;47.912;7.356;2022-07-04T18:25:20;99400.25;;;26.36;38.55
61805;BME280;47725;47.912;7.356;2022-07-04T18:29:20;99402.12;;;26.34;39.46
61805;BME280;47725;47.912;7.356;2022-07-04T18:33:20;99402.83;;;26.36;39.67
61805;BME280;47725;47.912;7.356;2022-07-04T18:37:20;99404.35;;;26.40;39.68
61805;BME280;47725;47.912;7.356;2022-07-04T18:41:20;99406.59;;;26.45;39.93
61805;BME280;47725;47.912;7.356;2022-07-04T18:45:20;99408.13;;;26.49;40.03
61805;BME280;47725;47.912;7.356;2022-07-04T18:49:20;99409.56;;;26.54;40.19
61805;BME280;47725;47.912;7.356;2022-07-04T18:53:20;99411.06;;;26.56;40.40
61805;BME280;47725;47.912;7.356;2022-07-04T18:57:20;99411.85;;;26.58;40.65
61805;BME280;47725;47.912;7.356;2022-07-04T19:01:20;99412.39;;;26.59;40.87
61805;BME280;47725;47.912;7.356;2022-07-04T19:05:20;99413.34;;;26.60;40.93
61805;BME280;47725;47.912;7.356;2022-07-04T19:09:20;99414.69;;;26.61;40.99
61805;BME280;47725;47.912;7.356;2022-07-04T19:13:20;99416.05;;;26.62;41.11
61805;BME280;47725;47.912;7.356;2022-07-04T19:17:20;99417.81;;;26.63;41.19
61805;BME280;47725;47.912;7.356;2022-07-04T19:21:23;99419.14;;;26.63;41.30
61805;BME280;47725;47.912;7.356;2022-07-04T19:25:20;99422.48;;;26.63;41.36
61805;BME280;47725;47.912;7.356;2022-07-04T19:29:20;99424.81;;;26.63;41.37
61805;BME280;47725;47.912;7.356;2022-07-04T19:33:20;99426.93;;;26.63;41.34
61805;BME280;47725;47.912;7.356;2022-07-04T19:37:20;99427.69;;;26.63;41.31
61805;BME280;47725;47.912;7.356;2022-07-04T19:41:20;99429.10;;;26.64;41.36
61805;BME280;47725;47.912;7.356;2022-07-04T19:45:20;99431.69;;;26.64;41.48
61805;BME280;47725;47.912;7.356;2022-07-04T19:49:20;99434.10;;;26.64;41.47
61805;BME280;47725;47.912;7.356;2022-07-04T19:53:20;99437.61;;;26.64;41.46
61805;BME280;47725;47.912;7.356;2022-07-04T19:57:20;99439.31;;;26.65;41.46
61805;BME280;47725;47.912;7.356;2022-07-04T20:01:20;99441.82;;;26.65;41.49
61805;BME280;47725;47.912;7.356;2022-07-04T20:05:20;99445.18;;;26.66;41.54
61805;BME280;47725;47.912;7.356;2022-07-04T20:09:20;99449.77;;;26.66;41.59
61805;BME280;47725;47.912;7.356;2022-07-04T20:13:20;99453.55;;;26.66;41.67
61805;BME280;47725;47.912;7.356;2022-07-04T20:17:22;99457.79;;;26.66;41.69
61805;BME280;47725;47.912;7.356;2022-07-04T20:21:20;99461.47;;;26.66;41.74
61805;BME280;47725;47.912;7.356;2022-07-04T20:25:20;99464.89;;;26.67;41.80
61805;BME280;47725;47.912;7.356;2022-07-04T20:29:20;99467.55;;;26.67;41.85
61805;BME280;47725;47.912;7.356;2022-07-04T20:33:20;99469.22;;;26.67;41.89
61805;BME280;47725;47.912;7.356;2022-07-04T20:37:20;99471.06;;;26.67;41.93
61805;BME280;47725;47.912;7.356;2022-07-04T20:41:20;99473.55;;;26.67;41.97
61805;BME280;47725;47.912;7.356;2022-07-04T20:45:20;99476.56;;;26.67;42.04
61805;BME280;47725;47.912;7.356;2022-07-04T20:49:20;99479.47;;;26.66;42.10
61805;BME280;47725;47.912;7.356;2022-07-04T20:53:20;99482.97;;;26.66;42.09
61805;BME280;47725;47.912;7.356;2022-07-04T20:57:20;99486.05;;;26.67;42.18
61805;BME280;47725;47.912;7.356;2022-07-04T21:01:20;99489.31;;;26.67;42.16
61805;BME280;47725;47.912;7.356;2022-07-04T21:05:20;99491.27;;;26.68;42.18
61805;BME280;47725;47.912;7.356;2022-07-04T21:09:20;99493.77;;;26.68;42.18